createdAt,value
2017-12-14T00:01:49.969Z,82.20
2017-12-14T00:04:16.376Z,82.20
2017-12-14T00:06:43.551Z,82.60
2017-12-14T00:09:10.006Z,82.60
2017-12-14T00:11:36.410Z,82.80
2017-12-14T00:14:03.544Z,82.60
2017-12-14T00:16:30.704Z,82.60
2017-12-14T00:18:57.863Z,82.90
2017-12-14T00:21:25.007Z,82.60
2017-12-14T00:23:52.112Z,82.40
2017-12-14T00:26:18.495Z,82.40
2017-12-14T00:28:44.874Z,82.60
2017-12-14T00:31:11.252Z,82.50
2017-12-14T00:33:38.375Z,82.70
2017-12-14T00:36:04.746Z,82.70
2017-12-14T00:38:31.119Z,82.30
2017-12-14T00:40:57.502Z,82.30
2017-12-14T00:43:24.654Z,82.40
2017-12-14T00:45:51.075Z,82.30
2017-12-14T00:48:18.240Z,82.90
2017-12-14T00:50:44.642Z,82.90
2017-12-14T00:53:11.097Z,82.70
2017-12-14T00:55:37.484Z,82.60
2017-12-14T00:58:04.014Z,82.90
2017-12-14T01:00:30.420Z,82.60
2017-12-14T01:02:56.825Z,82.40
2017-12-14T01:05:23.268Z,82.30
2017-12-14T01:07:49.668Z,82.40
2017-12-14T01:10:16.819Z,82.70
2017-12-14T01:12:43.941Z,82.60
2017-12-14T01:15:10.323Z,82.40
2017-12-14T01:17:36.691Z,82.50
2017-12-14T01:20:16.502Z,82.80
2017-12-14T01:22:42.991Z,83.10
2017-12-14T01:25:23.084Z,83.40
2017-12-14T01:27:50.249Z,83.30
2017-12-14T01:30:16.666Z,83.40
2017-12-14T01:32:43.816Z,82.60
2017-12-14T01:35:10.940Z,82.40
2017-12-14T01:37:37.332Z,82.40
2017-12-14T01:40:03.728Z,82.20
2017-12-14T01:42:30.115Z,82.50
2017-12-14T01:44:56.512Z,82.30
2017-12-14T01:47:22.915Z,82.40
2017-12-14T01:49:49.307Z,82.10
2017-12-14T01:52:15.681Z,82.10
2017-12-14T01:54:42.836Z,81.70
2017-12-14T01:57:09.953Z,82.40
2017-12-14T01:59:37.812Z,83.60
2017-12-14T02:02:04.211Z,83.60
2017-12-14T02:04:30.628Z,85.00
2017-12-14T02:06:57.056Z,84.10
2017-12-14T02:09:23.434Z,85.40
2017-12-14T02:11:49.802Z,86.40
2017-12-14T02:14:16.951Z,85.00
2017-12-14T02:16:44.151Z,85.90
2017-12-14T02:19:10.533Z,85.90
2017-12-14T02:21:36.947Z,85.50
2017-12-14T02:24:03.358Z,85.90
2017-12-14T02:26:29.753Z,86.40
2017-12-14T02:28:56.146Z,87.00
2017-12-14T02:31:24.028Z,85.30
2017-12-14T02:33:51.170Z,84.30
2017-12-14T02:36:18.285Z,84.00
2017-12-14T02:38:44.742Z,84.00
2017-12-14T02:41:11.915Z,83.20
2017-12-14T02:43:39.020Z,82.50
2017-12-14T02:46:05.440Z,82.50
2017-12-14T02:48:31.868Z,82.20
2017-12-14T02:50:58.244Z,82.40
2017-12-14T02:53:25.374Z,82.90
2017-12-14T02:55:51.752Z,82.70
2017-12-14T02:58:18.154Z,82.60
2017-12-14T03:00:44.538Z,82.70
2017-12-14T03:03:10.927Z,82.70
2017-12-14T03:05:37.336Z,83.10
2017-12-14T03:08:03.744Z,83.00
2017-12-14T03:10:30.183Z,83.00
2017-12-14T03:12:56.577Z,82.80
2017-12-14T03:15:23.699Z,82.90
2017-12-14T03:17:50.835Z,82.90
2017-12-14T03:20:17.230Z,82.80
2017-12-14T03:22:43.683Z,82.80
2017-12-14T03:25:10.047Z,82.40
2017-12-14T03:27:36.429Z,82.30
2017-12-14T03:30:02.860Z,82.50
2017-12-14T03:32:29.248Z,82.40
2017-12-14T03:34:56.387Z,82.30
2017-12-14T03:37:22.772Z,82.30
2017-12-14T03:39:49.176Z,82.60
2017-12-14T03:42:16.303Z,82.30
2017-12-14T03:44:43.451Z,81.30
2017-12-14T03:47:09.851Z,81.20
2017-12-14T03:49:36.294Z,81.20
2017-12-14T03:52:02.702Z,80.70
2017-12-14T03:54:29.122Z,80.80
2017-12-14T03:56:55.507Z,80.70
2017-12-14T03:59:23.370Z,81.00
2017-12-14T04:01:49.738Z,80.90
2017-12-14T04:04:16.166Z,81.10
2017-12-14T04:06:42.574Z,81.20
2017-12-14T04:09:08.996Z,80.80
2017-12-14T04:11:35.406Z,80.60
2017-12-14T04:14:01.843Z,80.20
2017-12-14T04:16:28.272Z,81.30
2017-12-14T04:18:54.770Z,82.60
2017-12-14T04:21:21.260Z,82.30
2017-12-14T04:23:47.686Z,82.50
2017-12-14T04:26:14.088Z,81.80
2017-12-14T04:28:40.518Z,81.70
2017-12-14T04:31:06.941Z,82.00
2017-12-14T04:33:33.361Z,81.80
2017-12-14T04:35:59.816Z,81.30
2017-12-14T04:38:26.224Z,81.50
2017-12-14T04:40:52.664Z,80.70
2017-12-14T04:43:19.096Z,80.60
2017-12-14T04:45:45.525Z,80.60
2017-12-14T04:48:11.928Z,80.50
2017-12-14T04:50:38.391Z,80.50
2017-12-14T04:53:04.845Z,80.50
2017-12-14T04:55:31.294Z,80.50
2017-12-14T04:57:57.736Z,80.30
2017-12-14T05:00:24.162Z,80.10
2017-12-14T05:02:50.597Z,79.80
2017-12-14T05:05:17.028Z,79.80
2017-12-14T05:07:43.528Z,79.80
2017-12-14T05:10:09.965Z,80.40
2017-12-14T05:12:36.340Z,80.60
2017-12-14T05:15:02.770Z,80.20
2017-12-14T05:17:29.203Z,80.10
2017-12-14T05:19:55.657Z,79.80
2017-12-14T05:22:22.084Z,80.50
2017-12-14T05:24:48.514Z,81.40
2017-12-14T05:27:14.968Z,81.60
2017-12-14T05:29:42.173Z,83.40
2017-12-14T05:32:08.614Z,83.40
2017-12-14T05:34:35.055Z,83.30
2017-12-14T05:37:01.471Z,83.50
2017-12-14T05:39:27.902Z,82.90
2017-12-14T05:41:54.344Z,82.60
2017-12-14T05:44:20.784Z,82.20
2017-12-14T05:46:47.233Z,82.30
2017-12-14T05:49:15.147Z,82.50
2017-12-14T05:51:41.589Z,82.60
2017-12-14T05:54:08.070Z,82.90
2017-12-14T05:56:35.971Z,82.80
2017-12-14T05:59:03.151Z,82.60
2017-12-14T06:01:29.587Z,82.60
2017-12-14T06:03:56.040Z,82.40
2017-12-14T06:06:22.505Z,82.70
2017-12-14T06:08:48.950Z,83.00
2017-12-14T06:11:15.367Z,83.20
2017-12-14T06:13:42.572Z,83.50
2017-12-14T06:16:09.010Z,83.50
2017-12-14T06:18:35.444Z,83.60
2017-12-14T06:21:01.911Z,83.90
2017-12-14T06:23:29.085Z,84.00
2017-12-14T06:25:56.279Z,84.20
2017-12-14T06:28:22.739Z,84.20
2017-12-14T06:30:49.178Z,84.10
2017-12-14T06:33:16.351Z,84.30
2017-12-14T06:35:42.789Z,84.20
2017-12-14T06:38:09.961Z,84.10
2017-12-14T06:40:36.406Z,84.10
2017-12-14T06:43:02.835Z,84.00
2017-12-14T06:45:29.414Z,84.80
2017-12-14T06:47:56.639Z,84.90
2017-12-14T06:50:23.154Z,84.90
2017-12-14T06:52:49.586Z,84.90
2017-12-14T06:55:16.058Z,84.90
2017-12-14T06:57:42.504Z,84.90
2017-12-14T07:00:09.675Z,85.10
2017-12-14T07:02:36.880Z,85.10
2017-12-14T07:05:03.309Z,85.00
2017-12-14T07:07:29.742Z,84.90
2017-12-14T07:09:56.191Z,84.90
2017-12-14T07:12:22.684Z,85.20
2017-12-14T07:14:49.138Z,85.70
2017-12-14T07:17:15.559Z,86.40
2017-12-14T07:19:41.974Z,86.40
2017-12-14T07:22:08.460Z,86.60
2017-12-14T07:24:34.892Z,86.80
2017-12-14T07:27:01.525Z,89.10
2017-12-14T07:29:27.978Z,90.40
2017-12-14T07:31:55.160Z,91.40
2017-12-14T07:34:21.604Z,91.40
2017-12-14T07:36:48.057Z,90.70
2017-12-14T07:39:14.480Z,90.10
2017-12-14T07:41:41.071Z,90.10
2017-12-14T07:44:30.147Z,90.80
2017-12-14T07:47:08.794Z,90.80
2017-12-14T07:49:35.270Z,90.80
2017-12-14T07:52:02.443Z,91.40
2017-12-14T07:54:28.878Z,91.30
2017-12-14T07:56:55.353Z,91.40
2017-12-14T07:59:21.791Z,91.20
2017-12-14T08:01:48.219Z,91.30
2017-12-14T08:04:14.674Z,91.10
2017-12-14T08:06:42.581Z,90.50
2017-12-14T08:09:09.736Z,90.60
2017-12-14T08:11:36.165Z,90.60
2017-12-14T08:14:02.606Z,90.40
2017-12-14T08:16:29.034Z,90.40
2017-12-14T08:18:55.468Z,90.30
2017-12-14T08:21:21.899Z,90.40
2017-12-14T08:23:48.318Z,90.80
2017-12-14T08:26:14.789Z,90.80
2017-12-14T08:28:41.223Z,90.60
2017-12-14T08:31:07.636Z,91.40
2017-12-14T08:33:34.098Z,91.70
2017-12-14T08:36:00.528Z,91.90
2017-12-14T08:38:26.924Z,92.00
2017-12-14T08:40:53.327Z,92.00
2017-12-14T08:43:20.523Z,91.90
2017-12-14T08:45:52.003Z,91.90
2017-12-14T08:48:18.420Z,92.00
2017-12-14T08:50:44.864Z,92.00
2017-12-14T08:53:11.290Z,92.00
2017-12-14T08:55:37.734Z,91.60
2017-12-14T08:58:04.175Z,91.00
2017-12-14T09:00:30.623Z,90.40
2017-12-14T09:02:57.062Z,90.10
2017-12-14T09:05:23.505Z,88.40
2017-12-14T09:07:50.904Z,87.60
2017-12-14T09:10:17.358Z,85.80
2017-12-14T09:12:43.774Z,83.80
2017-12-14T09:15:10.206Z,83.60
2017-12-14T09:17:36.644Z,82.80
2017-12-14T09:20:03.117Z,83.00
2017-12-14T09:22:31.837Z,81.20
2017-12-14T09:24:58.242Z,81.20
2017-12-14T09:27:25.405Z,79.80
2017-12-14T09:29:52.561Z,79.30
2017-12-14T09:32:19.740Z,79.00
2017-12-14T09:34:46.166Z,79.00
2017-12-14T09:37:12.616Z,78.30
2017-12-14T09:39:39.044Z,76.80
2017-12-14T09:42:05.480Z,76.10
2017-12-14T09:44:31.912Z,75.50
2017-12-14T09:46:58.334Z,74.50
2017-12-14T09:49:26.487Z,73.90
2017-12-14T09:51:52.924Z,73.40
2017-12-14T09:54:19.368Z,74.20
2017-12-14T09:56:45.863Z,74.00
2017-12-14T09:59:13.036Z,74.50
2017-12-14T10:01:40.208Z,75.10
2017-12-14T10:04:06.665Z,75.10
2017-12-14T10:06:33.165Z,74.60
2017-12-14T10:08:59.595Z,74.70
2017-12-14T10:11:26.055Z,74.20
2017-12-14T10:13:52.462Z,74.80
2017-12-14T10:16:18.902Z,75.00
2017-12-14T10:18:45.344Z,75.50
2017-12-14T10:21:11.771Z,75.80
2017-12-14T10:23:38.207Z,76.30
2017-12-14T10:26:04.632Z,76.50
2017-12-14T10:28:31.067Z,77.20
2017-12-14T10:30:57.500Z,76.60
2017-12-14T10:33:23.922Z,76.50
2017-12-14T10:35:50.351Z,76.90
2017-12-14T10:38:16.819Z,76.10
2017-12-14T10:40:43.246Z,76.70
2017-12-14T10:43:09.673Z,77.20
2017-12-14T10:45:36.128Z,76.90
2017-12-14T10:48:04.219Z,76.60
2017-12-14T10:50:32.152Z,76.70
2017-12-14T10:52:58.680Z,76.70
2017-12-14T10:55:25.833Z,76.20
2017-12-14T10:57:52.261Z,76.20
2017-12-14T11:00:18.714Z,76.80
2017-12-14T11:02:45.167Z,76.40
2017-12-14T11:05:11.584Z,75.00
2017-12-14T11:07:38.016Z,74.10
2017-12-14T11:10:04.450Z,73.50
2017-12-14T11:12:30.964Z,72.30
2017-12-14T11:14:57.384Z,72.00
2017-12-14T11:17:23.792Z,72.00
2017-12-14T11:19:50.259Z,70.40
2017-12-14T11:22:16.730Z,71.20
2017-12-14T11:24:43.171Z,72.10
2017-12-14T11:27:11.099Z,73.30
2017-12-14T11:29:37.526Z,73.30
2017-12-14T11:32:03.992Z,73.60
2017-12-14T11:34:30.408Z,74.60
2017-12-14T11:36:56.855Z,75.00
2017-12-14T11:39:24.799Z,74.10
2017-12-14T11:41:51.275Z,74.00
2017-12-14T11:44:18.504Z,74.30
2017-12-14T11:46:44.895Z,74.30
2017-12-14T11:49:11.325Z,74.40
2017-12-14T11:51:37.727Z,74.50
2017-12-14T11:54:04.908Z,72.70
2017-12-14T11:56:31.368Z,73.20
2017-12-14T11:58:57.786Z,72.90
2017-12-14T12:01:24.218Z,73.90
2017-12-14T12:03:50.642Z,74.50
2017-12-14T12:06:17.097Z,71.70
2017-12-14T12:08:43.513Z,70.90
2017-12-14T12:11:09.958Z,69.70
2017-12-14T12:13:36.420Z,70.70
2017-12-14T12:16:02.849Z,69.40
2017-12-14T12:18:29.299Z,68.90
2017-12-14T12:20:55.730Z,68.00
2017-12-14T12:23:23.659Z,67.30
2017-12-14T12:25:50.112Z,67.30
2017-12-14T12:28:21.600Z,67.30
2017-12-14T12:30:48.817Z,68.70
2017-12-14T12:33:15.306Z,68.70
2017-12-14T12:35:41.732Z,67.30
2017-12-14T12:38:08.910Z,66.90
2017-12-14T12:40:35.372Z,66.90
2017-12-14T12:43:01.777Z,67.20
2017-12-14T12:45:28.239Z,67.40
2017-12-14T12:47:55.108Z,67.90
2017-12-14T12:50:42.737Z,66.40
2017-12-14T12:53:09.910Z,67.00
2017-12-14T12:55:37.319Z,66.90
2017-12-14T12:58:04.515Z,67.90
2017-12-14T13:00:30.979Z,67.90
2017-12-14T13:02:57.413Z,67.00
2017-12-14T13:05:23.980Z,66.80
2017-12-14T13:07:50.423Z,67.60
2017-12-14T13:10:16.884Z,66.70
2017-12-14T13:12:44.068Z,66.30
2017-12-14T13:15:10.484Z,66.30
2017-12-14T13:17:36.908Z,67.20
2017-12-14T13:20:03.328Z,67.10
2017-12-14T13:22:30.533Z,67.60
2017-12-14T13:24:56.984Z,67.60
2017-12-14T13:27:23.431Z,67.80
2017-12-14T13:29:50.654Z,68.70
2017-12-14T13:32:17.078Z,68.70
2017-12-14T13:34:43.546Z,68.60
2017-12-14T13:37:09.998Z,69.00
2017-12-14T13:39:36.420Z,69.80
2017-12-14T13:42:03.640Z,70.10
2017-12-14T13:44:30.070Z,70.10
2017-12-14T13:46:56.488Z,70.10
2017-12-14T13:49:22.928Z,70.00
2017-12-14T13:51:49.367Z,69.80
2017-12-14T13:54:15.821Z,69.40
2017-12-14T13:56:43.014Z,70.00
2017-12-14T13:59:09.488Z,70.00
2017-12-14T14:01:35.932Z,69.70
2017-12-14T14:04:02.383Z,69.90
2017-12-14T14:06:29.556Z,70.20
2017-12-14T14:08:56.067Z,70.10
2017-12-14T14:11:23.238Z,69.70
2017-12-14T14:13:49.649Z,69.60
2017-12-14T14:16:16.810Z,69.10
2017-12-14T14:18:43.987Z,69.10
2017-12-14T14:21:10.430Z,69.10
2017-12-14T14:23:36.892Z,69.70
2017-12-14T14:26:03.717Z,70.40
2017-12-14T14:28:30.112Z,70.10
2017-12-14T14:30:56.558Z,70.50
2017-12-14T14:33:23.002Z,70.60
2017-12-14T14:35:49.476Z,70.50
2017-12-14T14:38:16.660Z,70.50
2017-12-14T14:40:43.085Z,70.40
2017-12-14T14:43:10.288Z,70.60
2017-12-14T14:45:36.763Z,70.60
2017-12-14T14:48:03.943Z,70.50
2017-12-14T14:50:30.371Z,70.40
2017-12-14T14:52:56.795Z,70.10
2017-12-14T14:55:23.192Z,69.90
2017-12-14T14:57:51.044Z,70.80
2017-12-14T15:00:17.458Z,70.70
2017-12-14T15:02:43.839Z,72.10
2017-12-14T15:05:10.961Z,73.80
2017-12-14T15:07:37.387Z,73.70
2017-12-14T15:10:03.772Z,73.80
2017-12-14T15:12:30.171Z,73.90
2017-12-14T15:14:56.567Z,74.10
2017-12-14T15:17:22.936Z,74.60
2017-12-14T15:19:49.309Z,74.70
2017-12-14T15:22:15.707Z,74.60
2017-12-14T15:24:42.929Z,75.10
2017-12-14T15:27:09.354Z,75.00
2017-12-14T15:29:35.784Z,74.50
2017-12-14T15:32:02.257Z,75.00
2017-12-14T15:34:29.410Z,76.80
2017-12-14T15:36:56.593Z,76.60
2017-12-14T15:39:23.037Z,76.60
2017-12-14T15:41:49.475Z,76.00
2017-12-14T15:44:15.911Z,76.10
2017-12-14T15:46:42.366Z,75.70
2017-12-14T15:49:10.188Z,75.40
2017-12-14T15:51:37.592Z,75.50
2017-12-14T15:54:05.309Z,78.80
2017-12-14T15:56:31.732Z,78.60
2017-12-14T15:58:58.195Z,79.70
2017-12-14T16:01:24.598Z,80.30
2017-12-14T16:03:51.027Z,80.40
2017-12-14T16:06:17.436Z,79.90
2017-12-14T16:08:43.970Z,79.40
2017-12-14T16:11:11.095Z,77.30
2017-12-14T16:13:37.474Z,77.30
2017-12-14T16:16:04.594Z,76.00
2017-12-14T16:18:31.806Z,75.40
2017-12-14T16:20:58.206Z,75.30
2017-12-14T16:23:24.576Z,75.40
2017-12-14T16:25:50.986Z,74.60
2017-12-14T16:28:17.377Z,74.60
2017-12-14T16:30:43.766Z,73.80
2017-12-14T16:33:10.215Z,74.00
2017-12-14T16:35:36.598Z,74.40
2017-12-14T16:38:03.047Z,75.00
2017-12-14T16:40:29.478Z,75.10
2017-12-14T16:42:55.868Z,74.90
2017-12-14T16:45:23.747Z,74.80
2017-12-14T16:47:50.854Z,74.60
2017-12-14T16:50:17.246Z,74.60
2017-12-14T16:52:43.639Z,75.70
2017-12-14T16:55:10.023Z,76.30
2017-12-14T16:57:36.420Z,77.00
2017-12-14T17:00:03.590Z,77.20
2017-12-14T17:02:29.990Z,77.10
2017-12-14T17:04:56.381Z,76.70
2017-12-14T17:07:23.530Z,75.40
2017-12-14T17:09:49.981Z,75.50
2017-12-14T17:12:17.919Z,75.20
2017-12-14T17:14:44.346Z,75.20
2017-12-14T17:17:15.844Z,74.90
2017-12-14T17:19:42.307Z,75.90
2017-12-14T17:22:09.474Z,75.40
2017-12-14T17:24:35.912Z,75.40
2017-12-14T17:27:02.322Z,75.70
2017-12-14T17:29:28.786Z,75.50
2017-12-14T17:31:55.199Z,75.20
2017-12-14T17:34:22.332Z,75.80
2017-12-14T17:36:48.720Z,75.80
2017-12-14T17:39:15.146Z,76.60
2017-12-14T17:41:41.528Z,76.50
2017-12-14T17:44:08.714Z,75.50
2017-12-14T17:46:35.142Z,75.50
2017-12-14T17:49:01.581Z,75.10
2017-12-14T17:51:27.976Z,75.30
2017-12-14T17:53:55.122Z,75.80
2017-12-14T17:56:21.503Z,75.70
2017-12-14T17:58:47.906Z,75.70
2017-12-14T18:01:15.059Z,75.30
2017-12-14T18:03:41.463Z,75.20
2017-12-14T18:06:08.600Z,74.60
2017-12-14T18:08:35.014Z,74.10
2017-12-14T18:11:01.405Z,74.40
2017-12-14T18:13:27.946Z,74.50
2017-12-14T18:15:54.374Z,73.60
2017-12-14T18:18:20.774Z,72.80
2017-12-14T18:20:47.216Z,73.00
2017-12-14T18:23:14.356Z,73.70
2017-12-14T18:25:42.256Z,73.50
2017-12-14T18:28:08.691Z,73.50
2017-12-14T18:30:35.152Z,73.10
2017-12-14T18:33:02.342Z,72.70
2017-12-14T18:35:29.503Z,73.60
2017-12-14T18:37:56.670Z,73.10
2017-12-14T18:40:23.089Z,72.90
2017-12-14T18:42:50.264Z,73.50
2017-12-14T18:45:16.803Z,73.50
2017-12-14T18:47:43.190Z,73.70
2017-12-14T18:50:09.634Z,74.00
2017-12-14T18:52:36.095Z,74.10
2017-12-14T18:55:02.534Z,74.40
2017-12-14T18:57:28.930Z,73.20
2017-12-14T18:59:55.396Z,73.40
2017-12-14T19:02:21.902Z,73.00
2017-12-14T19:04:49.013Z,73.00
2017-12-14T19:07:15.448Z,73.20
2017-12-14T19:09:41.875Z,73.50
2017-12-14T19:12:08.300Z,74.00
2017-12-14T19:14:35.302Z,74.70
2017-12-14T19:17:02.523Z,75.90
2017-12-14T19:19:28.946Z,75.90
2017-12-14T19:21:55.396Z,76.50
2017-12-14T19:24:23.342Z,75.40
2017-12-14T19:26:49.796Z,75.40
2017-12-14T19:29:16.268Z,75.40
2017-12-14T19:31:43.418Z,75.80
2017-12-14T19:34:09.814Z,75.80
2017-12-14T19:36:36.221Z,75.80
2017-12-14T19:39:02.674Z,75.30
2017-12-14T19:41:29.121Z,75.20
2017-12-14T19:43:55.503Z,74.90
2017-12-14T19:46:21.927Z,74.50
2017-12-14T19:48:48.400Z,74.10
2017-12-14T19:51:14.838Z,74.30
2017-12-14T19:53:41.265Z,74.20
2017-12-14T19:56:07.663Z,74.30
2017-12-14T19:58:34.068Z,74.40
2017-12-14T20:01:01.196Z,74.10
2017-12-14T20:03:27.635Z,74.10
2017-12-14T20:05:54.784Z,74.10
2017-12-14T20:08:22.008Z,73.80
2017-12-14T20:10:48.535Z,73.70
2017-12-14T20:13:14.986Z,73.30
2017-12-14T20:15:41.402Z,73.10
2017-12-14T20:18:07.836Z,72.80
2017-12-14T20:20:34.294Z,73.50
2017-12-14T20:23:00.761Z,73.50
2017-12-14T20:25:27.916Z,72.10
2017-12-14T20:27:54.330Z,72.10
2017-12-14T20:30:21.480Z,73.70
2017-12-14T20:32:48.682Z,74.00
2017-12-14T20:35:15.124Z,74.00
2017-12-14T20:37:41.516Z,74.00
2017-12-14T20:40:07.975Z,73.90
2017-12-14T20:42:34.425Z,73.90
2017-12-14T20:45:00.867Z,73.70
2017-12-14T20:47:27.264Z,73.10
2017-12-14T20:49:53.670Z,73.10
2017-12-14T20:52:20.833Z,72.60
2017-12-14T20:54:47.252Z,72.50
2017-12-14T20:57:13.727Z,71.80
2017-12-14T20:59:40.552Z,72.00
2017-12-14T21:02:06.986Z,73.40
2017-12-14T21:04:33.400Z,73.40
2017-12-14T21:06:59.867Z,73.50
2017-12-14T21:09:26.264Z,73.40
2017-12-14T21:11:52.728Z,73.30
2017-12-14T21:14:19.133Z,73.30
2017-12-14T21:16:45.575Z,72.90
2017-12-14T21:19:12.001Z,72.30
2017-12-14T21:21:38.429Z,72.00
2017-12-14T21:24:04.881Z,72.40
2017-12-14T21:26:31.319Z,71.60
2017-12-14T21:28:57.767Z,72.10
2017-12-14T21:31:24.196Z,73.00
2017-12-14T21:33:50.636Z,72.90
2017-12-14T21:36:17.107Z,72.40
2017-12-14T21:38:44.316Z,73.80
2017-12-14T21:41:10.766Z,73.80
2017-12-14T21:43:37.192Z,73.00
2017-12-14T21:46:03.611Z,73.60
2017-12-14T21:48:30.042Z,73.10
2017-12-14T21:50:56.477Z,73.10
2017-12-14T21:53:22.898Z,73.30
2017-12-14T21:55:49.344Z,74.30
2017-12-14T21:58:15.804Z,73.40
2017-12-14T22:00:42.277Z,73.30
2017-12-14T22:03:08.743Z,72.50
2017-12-14T22:05:35.150Z,70.90
2017-12-14T22:08:01.588Z,70.90
2017-12-14T22:10:28.020Z,71.40
2017-12-14T22:12:54.494Z,72.00
2017-12-14T22:15:21.271Z,72.00
2017-12-14T22:17:48.881Z,72.20
2017-12-14T22:20:15.723Z,72.10
2017-12-14T22:22:42.208Z,72.80
2017-12-14T22:25:09.359Z,74.10
2017-12-14T22:27:35.869Z,74.10
2017-12-14T22:30:03.055Z,74.80
2017-12-14T22:32:29.448Z,74.80
2017-12-14T22:34:55.939Z,74.00
2017-12-14T22:37:22.391Z,73.10
2017-12-14T22:39:48.843Z,73.20
2017-12-14T22:42:15.264Z,73.20
2017-12-14T22:44:41.662Z,72.90
2017-12-14T22:47:08.126Z,72.60
2017-12-14T22:49:34.528Z,72.60
2017-12-14T22:52:00.943Z,72.70
2017-12-14T22:54:28.085Z,72.90
2017-12-14T22:56:55.247Z,73.80
2017-12-14T22:59:21.675Z,73.80
2017-12-14T23:01:48.120Z,74.60
2017-12-14T23:04:14.547Z,75.30
2017-12-14T23:06:41.008Z,74.90
2017-12-14T23:09:07.408Z,74.70
2017-12-14T23:11:33.850Z,75.20
2017-12-14T23:14:00.252Z,75.30
2017-12-14T23:16:26.691Z,75.70
2017-12-14T23:18:53.143Z,75.40
2017-12-14T23:21:19.552Z,75.30
2017-12-14T23:23:46.730Z,75.60
2017-12-14T23:26:13.166Z,75.60
2017-12-14T23:28:39.590Z,75.50
2017-12-14T23:31:06.025Z,75.60
2017-12-14T23:33:32.464Z,75.30
2017-12-14T23:35:58.921Z,74.90
2017-12-14T23:38:25.335Z,74.60
2017-12-14T23:40:56.844Z,75.10
2017-12-14T23:43:23.345Z,75.00
2017-12-14T23:45:49.767Z,75.70
2017-12-14T23:48:16.159Z,76.00
2017-12-14T23:50:43.320Z,76.10
2017-12-14T23:53:09.783Z,76.80
2017-12-14T23:55:36.221Z,75.50
2017-12-14T23:58:02.728Z,75.30
